BAW34D EGAA-EGLL
Flight info
| Callsign | BAW34D |
|---|---|
| Flight time | 0h 57m |
| Altitude | 33000 |
| Route | LISBO DCT RINGA Q39 ETIGA DCT INKOB Q39 NOMSU UQ4 WAL UY53 NUGRA |
| Aircraft | A319/M-SDE3FGHIRWY/LB1 |
Departure
| Time | 2026-05-06 14:07 |
|---|---|
| Airport | Belfast International Airport (EGAA) |
Arrival
| Time | 2026-05-06 15:05 |
|---|---|
| Airport | London Heathrow Airport (EGLL) |
| Time | Latitude | Longitude | Altitude | Speed | Heading |
|---|---|---|---|---|---|
| 2026-05-06 13:39 | 54.65995 | -6.21774 | 276 ft | 0 kts | 245° |
| 2026-05-06 13:58 | 54.65996 | -6.21769 | 272 ft | 2 kts | 245° |
| 2026-05-06 13:59 | 54.66004 | -6.21741 | 272 ft | 3 kts | 241° |
| 2026-05-06 13:59 | 54.66015 | -6.21711 | 275 ft | 3 kts | 231° |
| 2026-05-06 13:59 | 54.66028 | -6.21688 | 275 ft | 3 kts | 205° |
| 2026-05-06 13:59 | 54.66041 | -6.21680 | 280 ft | 2 kts | 142° |
| 2026-05-06 14:00 | 54.66044 | -6.21685 | 272 ft | 0 kts | 125° |
| 2026-05-06 14:02 | 54.66042 | -6.21679 | 272 ft | 3 kts | 127° |
| 2026-05-06 14:02 | 54.65998 | -6.21625 | 273 ft | 10 kts | 155° |
| 2026-05-06 14:02 | 54.65950 | -6.21535 | 272 ft | 11 kts | 95° |
| 2026-05-06 14:03 | 54.65981 | -6.21401 | 272 ft | 13 kts | 65° |
| 2026-05-06 14:03 | 54.66019 | -6.21255 | 273 ft | 14 kts | 65° |
| 2026-05-06 14:03 | 54.66061 | -6.21103 | 275 ft | 15 kts | 65° |
| 2026-05-06 14:03 | 54.66106 | -6.20936 | 272 ft | 16 kts | 65° |
| 2026-05-06 14:04 | 54.66154 | -6.20753 | 272 ft | 17 kts | 65° |
| 2026-05-06 14:04 | 54.66206 | -6.20556 | 272 ft | 19 kts | 65° |
| 2026-05-06 14:04 | 54.66246 | -6.20414 | 275 ft | 20 kts | 64° |
| 2026-05-06 14:04 | 54.66327 | -6.20114 | 272 ft | 21 kts | 65° |
| 2026-05-06 14:05 | 54.66382 | -6.19911 | 272 ft | 18 kts | 65° |
| 2026-05-06 14:05 | 54.66378 | -6.19741 | 272 ft | 12 kts | 124° |
| 2026-05-06 14:05 | 54.66353 | -6.19704 | 272 ft | 0 kts | 150° |
| 2026-05-06 14:05 | 54.66350 | -6.19702 | 272 ft | 3 kts | 152° |
| 2026-05-06 14:06 | 54.66300 | -6.19662 | 272 ft | 11 kts | 157° |
| 2026-05-06 14:06 | 54.66251 | -6.19719 | 272 ft | 6 kts | 246° |
| 2026-05-06 14:06 | 54.66234 | -6.19784 | 274 ft | 21 kts | 244° |
| 2026-05-06 14:06 | 54.66078 | -6.20360 | 274 ft | 84 kts | 245° |
| 2026-05-06 14:07 | 54.65746 | -6.21588 | 276 ft | 140 kts | 245° |
| 2026-05-06 14:07 | 54.65288 | -6.23314 | 540 ft | 163 kts | 244° |
| 2026-05-06 14:07 | 54.64814 | -6.25091 | 1299 ft | 162 kts | 241° |
| 2026-05-06 14:07 | 54.64252 | -6.26819 | 1846 ft | 171 kts | 221° |
| 2026-05-06 14:08 | 54.63193 | -6.27809 | 2183 ft | 188 kts | 184° |
| 2026-05-06 14:08 | 54.61868 | -6.27191 | 2665 ft | 213 kts | 142° |
| 2026-05-06 14:08 | 54.60882 | -6.25067 | 3265 ft | 240 kts | 124° |
| 2026-05-06 14:08 | 54.60048 | -6.22475 | 4181 ft | 252 kts | 119° |
| 2026-05-06 14:09 | 54.59264 | -6.19768 | 5161 ft | 260 kts | 117° |
| 2026-05-06 14:09 | 54.58461 | -6.16951 | 6169 ft | 264 kts | 118° |
| 2026-05-06 14:09 | 54.57631 | -6.14091 | 7073 ft | 269 kts | 119° |
| 2026-05-06 14:09 | 54.56765 | -6.11178 | 7917 ft | 277 kts | 119° |
| 2026-05-06 14:10 | 54.55858 | -6.08192 | 8705 ft | 286 kts | 120° |
| 2026-05-06 14:10 | 54.54921 | -6.05152 | 9464 ft | 290 kts | 120° |
| 2026-05-06 14:10 | 54.53959 | -6.02053 | 10218 ft | 298 kts | 120° |
| 2026-05-06 14:10 | 54.52938 | -5.98785 | 10531 ft | 322 kts | 119° |
| 2026-05-06 14:11 | 54.51846 | -5.95294 | 10958 ft | 339 kts | 120° |
| 2026-05-06 14:11 | 54.50718 | -5.91683 | 11628 ft | 346 kts | 120° |
| 2026-05-06 14:11 | 54.49574 | -5.88024 | 12432 ft | 349 kts | 120° |
| 2026-05-06 14:11 | 54.48419 | -5.84324 | 13218 ft | 352 kts | 119° |
| 2026-05-06 14:12 | 54.47250 | -5.80584 | 13965 ft | 357 kts | 120° |
| 2026-05-06 14:12 | 54.46065 | -5.76806 | 14621 ft | 361 kts | 120° |
| 2026-05-06 14:12 | 54.44864 | -5.72990 | 15282 ft | 365 kts | 120° |
| 2026-05-06 14:12 | 54.43645 | -5.69126 | 15942 ft | 369 kts | 120° |
| 2026-05-06 14:13 | 54.42415 | -5.65239 | 16606 ft | 373 kts | 120° |
| 2026-05-06 14:13 | 54.41169 | -5.61303 | 17265 ft | 377 kts | 120° |
| 2026-05-06 14:13 | 54.39896 | -5.57341 | 17916 ft | 381 kts | 122° |
| 2026-05-06 14:13 | 54.38410 | -5.53558 | 18532 ft | 384 kts | 126° |
| 2026-05-06 14:14 | 54.36881 | -5.49781 | 19094 ft | 388 kts | 126° |
| 2026-05-06 14:14 | 54.35333 | -5.45963 | 19661 ft | 391 kts | 126° |
| 2026-05-06 14:14 | 54.33769 | -5.42114 | 20245 ft | 395 kts | 126° |
| 2026-05-06 14:14 | 54.32191 | -5.38239 | 20818 ft | 399 kts | 126° |
| 2026-05-06 14:15 | 54.30592 | -5.34323 | 21382 ft | 402 kts | 126° |
| 2026-05-06 14:15 | 54.28982 | -5.30377 | 21947 ft | 406 kts | 126° |
| 2026-05-06 14:15 | 54.27348 | -5.26418 | 22495 ft | 409 kts | 127° |
| 2026-05-06 14:15 | 54.25616 | -5.22534 | 23043 ft | 413 kts | 129° |
| 2026-05-06 14:16 | 54.23791 | -5.18711 | 23583 ft | 416 kts | 130° |
| 2026-05-06 14:16 | 54.21913 | -5.14914 | 24023 ft | 419 kts | 131° |
| 2026-05-06 14:16 | 54.20015 | -5.11112 | 24492 ft | 422 kts | 131° |
| 2026-05-06 14:16 | 54.18113 | -5.07277 | 24923 ft | 425 kts | 130° |
| 2026-05-06 14:17 | 54.16211 | -5.03396 | 25369 ft | 428 kts | 130° |
| 2026-05-06 14:17 | 54.14306 | -4.99470 | 25813 ft | 430 kts | 130° |
| 2026-05-06 14:17 | 54.12401 | -4.95523 | 26267 ft | 432 kts | 130° |
| 2026-05-06 14:17 | 54.10487 | -4.91559 | 26710 ft | 434 kts | 130° |
| 2026-05-06 14:18 | 54.08558 | -4.87573 | 27134 ft | 437 kts | 130° |
| 2026-05-06 14:18 | 54.06613 | -4.83574 | 27557 ft | 440 kts | 130° |
| 2026-05-06 14:18 | 54.04655 | -4.79552 | 27997 ft | 442 kts | 130° |
| 2026-05-06 14:18 | 54.02717 | -4.75469 | 28422 ft | 445 kts | 128° |
| 2026-05-06 14:19 | 54.00822 | -4.71283 | 28856 ft | 448 kts | 127° |
| 2026-05-06 14:19 | 53.98951 | -4.67031 | 29278 ft | 450 kts | 127° |
| 2026-05-06 14:19 | 53.97079 | -4.62738 | 29682 ft | 453 kts | 127° |
| 2026-05-06 14:19 | 53.95191 | -4.58425 | 30078 ft | 456 kts | 127° |
| 2026-05-06 14:20 | 53.93283 | -4.54106 | 30402 ft | 458 kts | 127° |
| 2026-05-06 14:20 | 53.91355 | -4.49786 | 30719 ft | 461 kts | 127° |
| 2026-05-06 14:20 | 53.89433 | -4.45517 | 31034 ft | 462 kts | 128° |
| 2026-05-06 14:20 | 53.87472 | -4.41179 | 31353 ft | 464 kts | 128° |
| 2026-05-06 14:21 | 53.85535 | -4.36793 | 31652 ft | 466 kts | 126° |
| 2026-05-06 14:21 | 53.83634 | -4.32247 | 32048 ft | 466 kts | 124° |
| 2026-05-06 14:21 | 53.81831 | -4.27777 | 32467 ft | 466 kts | 124° |
| 2026-05-06 14:21 | 53.80026 | -4.23238 | 32874 ft | 465 kts | 124° |
| 2026-05-06 14:22 | 53.78211 | -4.18690 | 33023 ft | 463 kts | 124° |
| 2026-05-06 14:22 | 53.76421 | -4.14258 | 33042 ft | 451 kts | 125° |
| 2026-05-06 14:22 | 53.72887 | -4.05641 | 33037 ft | 443 kts | 125° |
| 2026-05-06 14:23 | 53.69355 | -3.97138 | 33036 ft | 442 kts | 126° |
| 2026-05-06 14:23 | 53.65818 | -3.88650 | 33035 ft | 441 kts | 126° |
| 2026-05-06 14:24 | 53.62296 | -3.80197 | 33035 ft | 441 kts | 126° |
| 2026-05-06 14:24 | 53.58764 | -3.71756 | 33037 ft | 441 kts | 126° |
| 2026-05-06 14:25 | 53.55234 | -3.63329 | 33034 ft | 440 kts | 126° |
| 2026-05-06 14:25 | 53.51696 | -3.54925 | 33041 ft | 440 kts | 127° |
| 2026-05-06 14:26 | 53.48152 | -3.46553 | 33035 ft | 440 kts | 126° |
| 2026-05-06 14:26 | 53.45321 | -3.37464 | 33032 ft | 441 kts | 113° |
| 2026-05-06 14:27 | 53.42923 | -3.27986 | 33039 ft | 441 kts | 114° |
| 2026-05-06 14:27 | 53.40511 | -3.18599 | 33042 ft | 441 kts | 114° |
| 2026-05-06 14:28 | 53.37525 | -3.09687 | 33045 ft | 439 kts | 128° |
| 2026-05-06 14:28 | 53.33880 | -3.01501 | 33054 ft | 438 kts | 128° |
| 2026-05-06 14:29 | 53.30244 | -2.93331 | 33053 ft | 438 kts | 128° |
| 2026-05-06 14:29 | 53.26597 | -2.85177 | 33050 ft | 437 kts | 129° |
| 2026-05-06 14:30 | 53.22952 | -2.77056 | 33024 ft | 437 kts | 129° |
| 2026-05-06 14:30 | 53.19296 | -2.68938 | 33016 ft | 437 kts | 129° |
| 2026-05-06 14:31 | 53.15633 | -2.60850 | 33025 ft | 437 kts | 129° |
| 2026-05-06 14:31 | 53.12010 | -2.52738 | 33021 ft | 437 kts | 127° |
| 2026-05-06 14:32 | 53.08588 | -2.44363 | 33022 ft | 437 kts | 126° |
| 2026-05-06 14:32 | 53.05228 | -2.35934 | 33027 ft | 437 kts | 126° |
| 2026-05-06 14:33 | 53.01141 | -2.28613 | 33021 ft | 430 kts | 146° |
| 2026-05-06 14:33 | 52.96141 | -2.23236 | 33004 ft | 428 kts | 151° |
| 2026-05-06 14:34 | 52.91104 | -2.17966 | 33017 ft | 428 kts | 151° |
| 2026-05-06 14:34 | 52.85997 | -2.12613 | 33043 ft | 444 kts | 150° |
| 2026-05-06 14:35 | 52.80718 | -2.07105 | 33046 ft | 450 kts | 150° |
| 2026-05-06 14:35 | 52.75412 | -2.01588 | 33044 ft | 451 kts | 151° |
| 2026-05-06 14:36 | 52.70140 | -1.96123 | 33051 ft | 450 kts | 151° |
| 2026-05-06 14:36 | 52.64828 | -1.90644 | 33043 ft | 449 kts | 151° |
| 2026-05-06 14:37 | 52.59530 | -1.85176 | 33028 ft | 449 kts | 151° |
| 2026-05-06 14:37 | 52.54230 | -1.79730 | 33028 ft | 449 kts | 151° |
| 2026-05-06 14:38 | 52.48931 | -1.74321 | 33015 ft | 448 kts | 151° |
| 2026-05-06 14:38 | 52.43631 | -1.68908 | 33020 ft | 449 kts | 151° |
| 2026-05-06 14:39 | 52.38306 | -1.63470 | 33017 ft | 448 kts | 151° |
| 2026-05-06 14:39 | 52.33035 | -1.58115 | 33015 ft | 448 kts | 151° |
| 2026-05-06 14:40 | 52.27732 | -1.52758 | 33019 ft | 448 kts | 151° |
| 2026-05-06 14:40 | 52.22423 | -1.47398 | 33007 ft | 449 kts | 149° |
| 2026-05-06 14:41 | 52.17572 | -1.40922 | 33015 ft | 451 kts | 142° |
| 2026-05-06 14:41 | 52.12809 | -1.34256 | 33018 ft | 451 kts | 142° |
| 2026-05-06 14:42 | 52.08041 | -1.27611 | 33015 ft | 451 kts | 142° |
| 2026-05-06 14:42 | 52.03267 | -1.20994 | 32996 ft | 451 kts | 142° |
| 2026-05-06 14:43 | 51.98504 | -1.14426 | 31979 ft | 447 kts | 142° |
| 2026-05-06 14:43 | 51.96144 | -1.11171 | 31089 ft | 443 kts | 142° |
| 2026-05-06 14:43 | 51.93813 | -1.07956 | 30268 ft | 437 kts | 141° |
| 2026-05-06 14:44 | 51.91507 | -1.04779 | 29333 ft | 432 kts | 142° |
| 2026-05-06 14:44 | 51.89241 | -1.01660 | 28755 ft | 419 kts | 142° |
| 2026-05-06 14:44 | 51.87108 | -0.98721 | 28611 ft | 398 kts | 142° |
| 2026-05-06 14:45 | 51.83940 | -0.91880 | 27998 ft | 374 kts | 118° |
| 2026-05-06 14:45 | 51.82781 | -0.88150 | 27466 ft | 368 kts | 118° |
| 2026-05-06 14:45 | 51.81659 | -0.84466 | 26886 ft | 363 kts | 118° |
| 2026-05-06 14:45 | 51.80558 | -0.80828 | 26318 ft | 358 kts | 117° |
| 2026-05-06 14:46 | 51.79475 | -0.77247 | 25807 ft | 352 kts | 117° |
| 2026-05-06 14:46 | 51.78403 | -0.73726 | 25289 ft | 347 kts | 117° |
| 2026-05-06 14:46 | 51.77344 | -0.70266 | 24791 ft | 342 kts | 118° |
| 2026-05-06 14:46 | 51.76633 | -0.67948 | 24447 ft | 339 kts | 117° |
| 2026-05-06 14:47 | 51.75605 | -0.64607 | 23960 ft | 335 kts | 118° |
| 2026-05-06 14:47 | 51.74564 | -0.61247 | 23166 ft | 339 kts | 118° |
| 2026-05-06 14:47 | 51.73488 | -0.57784 | 22086 ft | 350 kts | 118° |
| 2026-05-06 14:47 | 51.72374 | -0.54278 | 21285 ft | 350 kts | 122° |
| 2026-05-06 14:48 | 51.70829 | -0.51306 | 20607 ft | 344 kts | 142° |
| 2026-05-06 14:48 | 51.68804 | -0.49353 | 19945 ft | 337 kts | 162° |
| 2026-05-06 14:48 | 51.66544 | -0.48600 | 19254 ft | 330 kts | 181° |
| 2026-05-06 14:48 | 51.64301 | -0.49036 | 18621 ft | 323 kts | 199° |
| 2026-05-06 14:49 | 51.62296 | -0.50549 | 17955 ft | 316 kts | 218° |
| 2026-05-06 14:49 | 51.60714 | -0.52928 | 17263 ft | 309 kts | 236° |
| 2026-05-06 14:49 | 51.59670 | -0.55903 | 16588 ft | 304 kts | 252° |
| 2026-05-06 14:49 | 51.59224 | -0.59182 | 15943 ft | 299 kts | 268° |
| 2026-05-06 14:50 | 51.59383 | -0.62489 | 15299 ft | 297 kts | 284° |
| 2026-05-06 14:50 | 51.60050 | -0.65616 | 14694 ft | 294 kts | 293° |
| 2026-05-06 14:50 | 51.60889 | -0.68603 | 14105 ft | 292 kts | 296° |
| 2026-05-06 14:50 | 51.61788 | -0.71515 | 13514 ft | 289 kts | 297° |
| 2026-05-06 14:51 | 51.62697 | -0.74377 | 12916 ft | 286 kts | 297° |
| 2026-05-06 14:51 | 51.63596 | -0.77210 | 12314 ft | 283 kts | 298° |
| 2026-05-06 14:51 | 51.64735 | -0.79746 | 11711 ft | 280 kts | 316° |
| 2026-05-06 14:51 | 51.66350 | -0.81442 | 11106 ft | 279 kts | 338° |
| 2026-05-06 14:52 | 51.68253 | -0.81958 | 10548 ft | 279 kts | 2° |
| 2026-05-06 14:52 | 51.70130 | -0.81196 | 10002 ft | 280 kts | 25° |
| 2026-05-06 14:52 | 51.71663 | -0.79270 | 9416 ft | 283 kts | 49° |
| 2026-05-06 14:52 | 51.72593 | -0.76486 | 8824 ft | 285 kts | 72° |
| 2026-05-06 14:53 | 51.72785 | -0.73313 | 8349 ft | 286 kts | 90° |
| 2026-05-06 14:53 | 51.72743 | -0.70156 | 8215 ft | 277 kts | 90° |
| 2026-05-06 14:53 | 51.72711 | -0.67103 | 8084 ft | 268 kts | 88° |
| 2026-05-06 14:53 | 51.72685 | -0.64149 | 7991 ft | 258 kts | 88° |
| 2026-05-06 14:54 | 51.72661 | -0.61298 | 7909 ft | 255 kts | 89° |
| 2026-05-06 14:54 | 51.72503 | -0.58432 | 7631 ft | 256 kts | 106° |
| 2026-05-06 14:54 | 51.71575 | -0.56066 | 7473 ft | 251 kts | 138° |
| 2026-05-06 14:54 | 51.70032 | -0.54796 | 7105 ft | 252 kts | 170° |
| 2026-05-06 14:55 | 51.68325 | -0.54997 | 6987 ft | 247 kts | 202° |
| 2026-05-06 14:55 | 51.66950 | -0.56517 | 7000 ft | 246 kts | 227° |
| 2026-05-06 14:55 | 51.65775 | -0.58531 | 7001 ft | 247 kts | 230° |
| 2026-05-06 14:55 | 51.64629 | -0.60594 | 6994 ft | 247 kts | 231° |
| 2026-05-06 14:56 | 51.63491 | -0.62640 | 6692 ft | 245 kts | 231° |
| 2026-05-06 14:56 | 51.62361 | -0.64697 | 6329 ft | 244 kts | 232° |
| 2026-05-06 14:56 | 51.61240 | -0.66751 | 5946 ft | 244 kts | 231° |
| 2026-05-06 14:56 | 51.60133 | -0.68803 | 5604 ft | 241 kts | 231° |
| 2026-05-06 14:57 | 51.59029 | -0.70836 | 5210 ft | 242 kts | 230° |
| 2026-05-06 14:57 | 51.57924 | -0.72862 | 4872 ft | 239 kts | 232° |
| 2026-05-06 14:57 | 51.56842 | -0.74807 | 4731 ft | 228 kts | 231° |
| 2026-05-06 14:57 | 51.55800 | -0.76660 | 4597 ft | 218 kts | 230° |
| 2026-05-06 14:58 | 51.54816 | -0.78421 | 4499 ft | 205 kts | 231° |
| 2026-05-06 14:58 | 51.53769 | -0.79898 | 4249 ft | 201 kts | 208° |
| 2026-05-06 14:58 | 51.52412 | -0.80351 | 3916 ft | 200 kts | 184° |
| 2026-05-06 14:58 | 51.51022 | -0.80431 | 3534 ft | 201 kts | 181° |
| 2026-05-06 14:59 | 51.49634 | -0.80485 | 3234 ft | 199 kts | 181° |
| 2026-05-06 14:59 | 51.48248 | -0.80527 | 2997 ft | 200 kts | 181° |
| 2026-05-06 14:59 | 51.46868 | -0.80355 | 2992 ft | 199 kts | 159° |
| 2026-05-06 14:59 | 51.45914 | -0.78884 | 2999 ft | 192 kts | 108° |
| 2026-05-06 15:00 | 51.45982 | -0.76869 | 3002 ft | 182 kts | 59° |
| 2026-05-06 15:00 | 51.46680 | -0.75200 | 3004 ft | 179 kts | 56° |
| 2026-05-06 15:00 | 51.47248 | -0.73422 | 3003 ft | 180 kts | 66° |
| 2026-05-06 15:00 | 51.47516 | -0.71438 | 2903 ft | 184 kts | 79° |
| 2026-05-06 15:01 | 51.47609 | -0.69423 | 2702 ft | 178 kts | 84° |
| 2026-05-06 15:01 | 51.47642 | -0.67500 | 2478 ft | 168 kts | 83° |
| 2026-05-06 15:01 | 51.47660 | -0.65637 | 2261 ft | 166 kts | 83° |
| 2026-05-06 15:01 | 51.47673 | -0.63814 | 2043 ft | 162 kts | 84° |
| 2026-05-06 15:02 | 51.47684 | -0.62005 | 1816 ft | 163 kts | 84° |
| 2026-05-06 15:02 | 51.47693 | -0.60237 | 1585 ft | 149 kts | 87° |
| 2026-05-06 15:02 | 51.47701 | -0.58659 | 1396 ft | 136 kts | 84° |
| 2026-05-06 15:02 | 51.47708 | -0.57172 | 1214 ft | 131 kts | 85° |
| 2026-05-06 15:03 | 51.47715 | -0.55719 | 1030 ft | 129 kts | 84° |
| 2026-05-06 15:03 | 51.47728 | -0.54278 | 834 ft | 131 kts | 85° |
| 2026-05-06 15:03 | 51.47735 | -0.52831 | 682 ft | 130 kts | 86° |
| 2026-05-06 15:03 | 51.47735 | -0.51375 | 474 ft | 131 kts | 85° |
| 2026-05-06 15:04 | 51.47744 | -0.49920 | 298 ft | 131 kts | 84° |
| 2026-05-06 15:04 | 51.47749 | -0.48468 | 135 ft | 130 kts | 85° |
| 2026-05-06 15:04 | 51.47757 | -0.47112 | 91 ft | 108 kts | 89° |
| 2026-05-06 15:04 | 51.47759 | -0.46187 | 88 ft | 59 kts | 89° |
| 2026-05-06 15:05 | 51.47760 | -0.45735 | 82 ft | 36 kts | 90° |
| 2026-05-06 15:05 | 51.47735 | -0.45500 | 86 ft | 16 kts | 137° |
| 2026-05-06 15:05 | 51.47666 | -0.45473 | 85 ft | 9 kts | 181° |
| 2026-05-06 15:05 | 51.47603 | -0.45493 | 85 ft | 9 kts | 222° |
| 2026-05-06 15:06 | 51.47597 | -0.45606 | 85 ft | 12 kts | 270° |
| 2026-05-06 15:06 | 51.47596 | -0.45755 | 85 ft | 14 kts | 269° |
| 2026-05-06 15:06 | 51.47595 | -0.45924 | 87 ft | 16 kts | 269° |
| 2026-05-06 15:06 | 51.47595 | -0.46115 | 90 ft | 18 kts | 269° |
| 2026-05-06 15:07 | 51.47594 | -0.46317 | 89 ft | 19 kts | 270° |
| 2026-05-06 15:07 | 51.47593 | -0.46533 | 90 ft | 21 kts | 269° |
| 2026-05-06 15:07 | 51.47592 | -0.46776 | 90 ft | 23 kts | 269° |
| 2026-05-06 15:07 | 51.47582 | -0.47049 | 89 ft | 26 kts | 270° |
| 2026-05-06 15:08 | 51.47582 | -0.47329 | 88 ft | 21 kts | 270° |
| 2026-05-06 15:08 | 51.47583 | -0.47562 | 85 ft | 22 kts | 269° |
| 2026-05-06 15:08 | 51.47582 | -0.47818 | 86 ft | 24 kts | 270° |
| 2026-05-06 15:08 | 51.47580 | -0.48091 | 88 ft | 25 kts | 270° |
| 2026-05-06 15:09 | 51.47579 | -0.48373 | 91 ft | 25 kts | 269° |
| 2026-05-06 15:09 | 51.47495 | -0.48478 | 85 ft | 16 kts | 179° |
| 2026-05-06 15:09 | 51.47415 | -0.48478 | 85 ft | 6 kts | 180° |
| 2026-05-06 15:09 | 51.47400 | -0.48516 | 86 ft | 4 kts | 281° |
| 2026-05-06 15:10 | 51.47401 | -0.48580 | 85 ft | 7 kts | 269° |
| 2026-05-06 15:10 | 51.47401 | -0.48591 | 85 ft | 0 kts | 269° |